sensor_id;sensor_type;location;lat;lon;timestamp;temperature;humidity
5061;DHT22;2549;52.128;21.068;2022-12-18T00:01:21;-0.90;98.60
5061;DHT22;2549;52.128;21.068;2022-12-18T00:03:49;-0.90;98.50
5061;DHT22;2549;52.128;21.068;2022-12-18T00:06:16;-0.90;98.40
5061;DHT22;2549;52.128;21.068;2022-12-18T00:08:44;-0.90;98.30
5061;DHT22;2549;52.128;21.068;2022-12-18T00:11:16;-0.80;98.40
5061;DHT22;2549;52.128;21.068;2022-12-18T00:13:43;-0.80;98.30
5061;DHT22;2549;52.128;21.068;2022-12-18T00:16:13;-0.90;98.40
5061;DHT22;2549;52.128;21.068;2022-12-18T00:18:41;-0.80;98.40
5061;DHT22;2549;52.128;21.068;2022-12-18T00:21:10;-0.70;98.50
5061;DHT22;2549;52.128;21.068;2022-12-18T00:23:38;-0.70;98.50
5061;DHT22;2549;52.128;21.068;2022-12-18T00:26:08;-0.70;98.40
5061;DHT22;2549;52.128;21.068;2022-12-18T00:28:36;-0.70;98.50
5061;DHT22;2549;52.128;21.068;2022-12-18T00:31:08;-0.70;98.40
5061;DHT22;2549;52.128;21.068;2022-12-18T00:33:36;-0.70;98.50
5061;DHT22;2549;52.128;21.068;2022-12-18T00:36:16;-0.70;98.30
5061;DHT22;2549;52.128;21.068;2022-12-18T00:38:44;-0.80;98.50
5061;DHT22;2549;52.128;21.068;2022-12-18T00:41:14;-0.90;98.70
5061;DHT22;2549;52.128;21.068;2022-12-18T00:44:02;-0.90;99.00
5061;DHT22;2549;52.128;21.068;2022-12-18T00:46:29;-0.90;99.20
5061;DHT22;2549;52.128;21.068;2022-12-18T00:48:57;-0.80;99.00
5061;DHT22;2549;52.128;21.068;2022-12-18T00:51:24;-0.80;99.00
5061;DHT22;2549;52.128;21.068;2022-12-18T00:53:51;-0.80;99.50
5061;DHT22;2549;52.128;21.068;2022-12-18T00:56:18;-0.70;99.30
5061;DHT22;2549;52.128;21.068;2022-12-18T00:58:45;-0.60;99.30
5061;DHT22;2549;52.128;21.068;2022-12-18T01:01:12;-0.60;99.10
5061;DHT22;2549;52.128;21.068;2022-12-18T01:03:40;-0.50;98.90
5061;DHT22;2549;52.128;21.068;2022-12-18T01:06:09;-0.60;99.00
5061;DHT22;2549;52.128;21.068;2022-12-18T01:08:36;-0.50;99.20
5061;DHT22;2549;52.128;21.068;2022-12-18T01:11:17;-0.50;99.10
5061;DHT22;2549;52.128;21.068;2022-12-18T01:13:45;-0.50;98.70
5061;DHT22;2549;52.128;21.068;2022-12-18T01:16:13;-0.70;98.90
5061;DHT22;2549;52.128;21.068;2022-12-18T01:18:40;-0.70;99.20
5061;DHT22;2549;52.128;21.068;2022-12-18T01:21:14;-0.70;99.30
5061;DHT22;2549;52.128;21.068;2022-12-18T01:23:41;-0.60;99.20
5061;DHT22;2549;52.128;21.068;2022-12-18T01:26:11;-0.60;99.20
5061;DHT22;2549;52.128;21.068;2022-12-18T01:28:39;-0.50;99.00
5061;DHT22;2549;52.128;21.068;2022-12-18T01:31:24;-0.50;98.80
5061;DHT22;2549;52.128;21.068;2022-12-18T01:33:52;-0.50;99.10
5061;DHT22;2549;52.128;21.068;2022-12-18T01:38:51;-0.50;99.10
5061;DHT22;2549;52.128;21.068;2022-12-18T01:41:22;-0.40;99.00
5061;DHT22;2549;52.128;21.068;2022-12-18T01:46:18;-0.40;99.00
5061;DHT22;2549;52.128;21.068;2022-12-18T01:48:47;-0.50;98.70
5061;DHT22;2549;52.128;21.068;2022-12-18T01:51:15;-0.60;98.70
5061;DHT22;2549;52.128;21.068;2022-12-18T01:53:43;-0.70;98.90
5061;DHT22;2549;52.128;21.068;2022-12-18T01:56:16;-0.60;99.00
5061;DHT22;2549;52.128;21.068;2022-12-18T01:59:00;-0.60;98.90
5061;DHT22;2549;52.128;21.068;2022-12-18T02:01:30;-0.80;99.10
5061;DHT22;2549;52.128;21.068;2022-12-18T02:04:24;-0.70;99.10
5061;DHT22;2549;52.128;21.068;2022-12-18T02:09:48;-0.70;98.90
5061;DHT22;2549;52.128;21.068;2022-12-18T02:12:19;-0.70;98.80
5061;DHT22;2549;52.128;21.068;2022-12-18T02:17:22;-0.60;98.70
5061;DHT22;2549;52.128;21.068;2022-12-18T02:23:12;-0.70;98.60
5061;DHT22;2549;52.128;21.068;2022-12-18T02:26:06;-0.70;98.80
5061;DHT22;2549;52.128;21.068;2022-12-18T02:28:42;-0.80;99.10
5061;DHT22;2549;52.128;21.068;2022-12-18T02:31:15;-0.70;99.00
5061;DHT22;2549;52.128;21.068;2022-12-18T02:33:45;-0.80;98.80
5061;DHT22;2549;52.128;21.068;2022-12-18T02:36:13;-0.70;98.90
5061;DHT22;2549;52.128;21.068;2022-12-18T02:38:42;-0.70;98.70
5061;DHT22;2549;52.128;21.068;2022-12-18T02:41:11;-0.70;98.80
5061;DHT22;2549;52.128;21.068;2022-12-18T02:43:41;-0.70;99.00
5061;DHT22;2549;52.128;21.068;2022-12-18T02:46:51;-0.70;98.90
5061;DHT22;2549;52.128;21.068;2022-12-18T02:49:26;-0.60;98.90
5061;DHT22;2549;52.128;21.068;2022-12-18T02:57:39;-0.50;98.60
5061;DHT22;2549;52.128;21.068;2022-12-18T03:00:33;-0.60;98.80
5061;DHT22;2549;52.128;21.068;2022-12-18T03:03:38;-0.60;98.80
5061;DHT22;2549;52.128;21.068;2022-12-18T03:06:35;-0.60;98.80
5061;DHT22;2549;52.128;21.068;2022-12-18T03:09:01;-0.60;98.80
5061;DHT22;2549;52.128;21.068;2022-12-18T03:11:30;-0.60;98.70
5061;DHT22;2549;52.128;21.068;2022-12-18T03:14:20;-0.60;98.80
5061;DHT22;2549;52.128;21.068;2022-12-18T03:16:50;-0.60;98.60
5061;DHT22;2549;52.128;21.068;2022-12-18T03:19:21;-0.50;98.60
5061;DHT22;2549;52.128;21.068;2022-12-18T03:21:54;-0.50;98.70
5061;DHT22;2549;52.128;21.068;2022-12-18T03:24:23;-0.40;98.70
5061;DHT22;2549;52.128;21.068;2022-12-18T03:26:53;-0.40;98.40
5061;DHT22;2549;52.128;21.068;2022-12-18T03:29:28;-0.50;98.40
5061;DHT22;2549;52.128;21.068;2022-12-18T03:32:03;-0.40;98.40
5061;DHT22;2549;52.128;21.068;2022-12-18T03:34:35;-0.60;98.50
5061;DHT22;2549;52.128;21.068;2022-12-18T03:37:03;-0.50;98.90
5061;DHT22;2549;52.128;21.068;2022-12-18T03:39:31;-0.50;98.50
5061;DHT22;2549;52.128;21.068;2022-12-18T03:42:10;-0.40;98.60
5061;DHT22;2549;52.128;21.068;2022-12-18T03:44:50;-0.30;98.30
5061;DHT22;2549;52.128;21.068;2022-12-18T03:47:42;-0.50;98.20
5061;DHT22;2549;52.128;21.068;2022-12-18T03:50:14;-0.50;98.20
5061;DHT22;2549;52.128;21.068;2022-12-18T03:53:03;-0.50;98.30
5061;DHT22;2549;52.128;21.068;2022-12-18T03:55:34;-0.50;98.30
5061;DHT22;2549;52.128;21.068;2022-12-18T03:58:04;-0.50;98.30
5061;DHT22;2549;52.128;21.068;2022-12-18T04:00:33;-0.50;98.10
5061;DHT22;2549;52.128;21.068;2022-12-18T04:03:01;-0.50;98.00
5061;DHT22;2549;52.128;21.068;2022-12-18T04:05:30;-0.40;98.00
5061;DHT22;2549;52.128;21.068;2022-12-18T04:07:59;-0.40;97.80
5061;DHT22;2549;52.128;21.068;2022-12-18T04:10:26;-0.50;97.80
5061;DHT22;2549;52.128;21.068;2022-12-18T04:12:56;-0.60;97.90
5061;DHT22;2549;52.128;21.068;2022-12-18T04:15:23;-0.70;98.10
5061;DHT22;2549;52.128;21.068;2022-12-18T04:17:50;-0.60;98.30
5061;DHT22;2549;52.128;21.068;2022-12-18T04:20:17;-0.50;98.10
5061;DHT22;2549;52.128;21.068;2022-12-18T04:22:44;-0.40;98.20
5061;DHT22;2549;52.128;21.068;2022-12-18T04:25:11;-0.50;97.60
5061;DHT22;2549;52.128;21.068;2022-12-18T04:27:38;-0.60;97.60
5061;DHT22;2549;52.128;21.068;2022-12-18T04:30:06;-0.60;97.80
5061;DHT22;2549;52.128;21.068;2022-12-18T04:32:34;-0.60;97.70
5061;DHT22;2549;52.128;21.068;2022-12-18T04:35:01;-0.60;97.90
5061;DHT22;2549;52.128;21.068;2022-12-18T04:37:28;-0.50;97.80
5061;DHT22;2549;52.128;21.068;2022-12-18T04:39:54;-0.50;97.70
5061;DHT22;2549;52.128;21.068;2022-12-18T04:42:21;-0.40;97.50
5061;DHT22;2549;52.128;21.068;2022-12-18T04:44:48;-0.40;97.60
5061;DHT22;2549;52.128;21.068;2022-12-18T04:47:15;-0.40;97.50
5061;DHT22;2549;52.128;21.068;2022-12-18T04:49:42;-0.40;97.50
5061;DHT22;2549;52.128;21.068;2022-12-18T04:52:09;-0.40;97.60
5061;DHT22;2549;52.128;21.068;2022-12-18T04:54:36;-0.50;97.20
5061;DHT22;2549;52.128;21.068;2022-12-18T04:57:02;-0.60;97.30
5061;DHT22;2549;52.128;21.068;2022-12-18T04:59:29;-0.60;97.20
5061;DHT22;2549;52.128;21.068;2022-12-18T05:01:56;-0.70;97.60
5061;DHT22;2549;52.128;21.068;2022-12-18T05:04:23;-0.80;97.40
5061;DHT22;2549;52.128;21.068;2022-12-18T05:06:50;-0.80;97.40
5061;DHT22;2549;52.128;21.068;2022-12-18T05:09:17;-0.80;97.40
5061;DHT22;2549;52.128;21.068;2022-12-18T05:11:45;-0.90;97.80
5061;DHT22;2549;52.128;21.068;2022-12-18T05:14:13;-0.90;97.70
5061;DHT22;2549;52.128;21.068;2022-12-18T05:16:40;-0.80;97.80
5061;DHT22;2549;52.128;21.068;2022-12-18T05:19:07;-0.80;97.70
5061;DHT22;2549;52.128;21.068;2022-12-18T05:21:33;-0.70;97.70
5061;DHT22;2549;52.128;21.068;2022-12-18T05:24:00;-0.70;97.60
5061;DHT22;2549;52.128;21.068;2022-12-18T05:26:27;-0.70;97.80
5061;DHT22;2549;52.128;21.068;2022-12-18T05:28:54;-0.70;97.80
5061;DHT22;2549;52.128;21.068;2022-12-18T05:31:21;-0.70;97.90
5061;DHT22;2549;52.128;21.068;2022-12-18T05:33:48;-0.70;98.00
5061;DHT22;2549;52.128;21.068;2022-12-18T05:36:15;-0.70;97.70
5061;DHT22;2549;52.128;21.068;2022-12-18T05:38:42;-0.70;97.90
5061;DHT22;2549;52.128;21.068;2022-12-18T05:41:09;-0.70;98.20
5061;DHT22;2549;52.128;21.068;2022-12-18T05:43:37;-0.70;98.00
5061;DHT22;2549;52.128;21.068;2022-12-18T05:46:07;-0.70;98.10
5061;DHT22;2549;52.128;21.068;2022-12-18T05:48:34;-0.80;98.20
5061;DHT22;2549;52.128;21.068;2022-12-18T05:51:10;-0.90;98.60
5061;DHT22;2549;52.128;21.068;2022-12-18T05:53:37;-1.00;98.70
5061;DHT22;2549;52.128;21.068;2022-12-18T05:56:08;-1.00;99.00
5061;DHT22;2549;52.128;21.068;2022-12-18T05:58:35;-1.00;99.00
5061;DHT22;2549;52.128;21.068;2022-12-18T06:01:12;-1.00;99.10
5061;DHT22;2549;52.128;21.068;2022-12-18T06:03:40;-1.10;99.30
5061;DHT22;2549;52.128;21.068;2022-12-18T06:06:19;-1.10;99.60
5061;DHT22;2549;52.128;21.068;2022-12-18T06:08:46;-1.20;99.90
5061;DHT22;2549;52.128;21.068;2022-12-18T06:11:18;-1.20;99.90
5061;DHT22;2549;52.128;21.068;2022-12-18T06:13:45;-1.10;99.80
5061;DHT22;2549;52.128;21.068;2022-12-18T06:16:13;-1.20;99.60
5061;DHT22;2549;52.128;21.068;2022-12-18T06:18:39;-1.20;99.80
5061;DHT22;2549;52.128;21.068;2022-12-18T06:21:06;-1.20;99.90
5061;DHT22;2549;52.128;21.068;2022-12-18T06:23:33;-1.10;99.90
5061;DHT22;2549;52.128;21.068;2022-12-18T06:26:08;-1.10;99.90
5061;DHT22;2549;52.128;21.068;2022-12-18T06:28:35;-1.10;99.90
5061;DHT22;2549;52.128;21.068;2022-12-18T06:31:03;-1.10;99.90
5061;DHT22;2549;52.128;21.068;2022-12-18T06:33:31;-1.10;99.90
5061;DHT22;2549;52.128;21.068;2022-12-18T06:36:06;-1.10;99.90
5061;DHT22;2549;52.128;21.068;2022-12-18T06:38:35;-1.00;99.90
5061;DHT22;2549;52.128;21.068;2022-12-18T06:41:10;-1.00;99.90
5061;DHT22;2549;52.128;21.068;2022-12-18T06:43:38;-0.90;99.90
5061;DHT22;2549;52.128;21.068;2022-12-18T06:46:06;-0.80;99.90
5061;DHT22;2549;52.128;21.068;2022-12-18T06:48:33;-0.80;99.50
5061;DHT22;2549;52.128;21.068;2022-12-18T06:51:00;-0.80;99.70
5061;DHT22;2549;52.128;21.068;2022-12-18T06:53:27;-0.80;99.50
5061;DHT22;2549;52.128;21.068;2022-12-18T06:56:05;-0.90;99.70
5061;DHT22;2549;52.128;21.068;2022-12-18T06:58:36;-0.90;99.80
5061;DHT22;2549;52.128;21.068;2022-12-18T07:01:05;-0.80;99.70
5061;DHT22;2549;52.128;21.068;2022-12-18T07:03:32;-0.70;99.60
5061;DHT22;2549;52.128;21.068;2022-12-18T07:05:59;-0.70;99.20
5061;DHT22;2549;52.128;21.068;2022-12-18T07:08:26;-0.80;99.00
5061;DHT22;2549;52.128;21.068;2022-12-18T07:10:53;-0.70;99.20
5061;DHT22;2549;52.128;21.068;2022-12-18T07:13:22;-0.80;99.20
5061;DHT22;2549;52.128;21.068;2022-12-18T07:15:49;-0.80;99.20
5061;DHT22;2549;52.128;21.068;2022-12-18T07:18:16;-0.80;99.40
5061;DHT22;2549;52.128;21.068;2022-12-18T07:20:43;-0.70;99.50
5061;DHT22;2549;52.128;21.068;2022-12-18T07:23:11;-0.70;99.50
5061;DHT22;2549;52.128;21.068;2022-12-18T07:25:38;-0.60;99.30
5061;DHT22;2549;52.128;21.068;2022-12-18T07:28:06;-0.70;99.40
5061;DHT22;2549;52.128;21.068;2022-12-18T07:30:37;-0.70;99.60
5061;DHT22;2549;52.128;21.068;2022-12-18T07:33:05;-0.70;99.40
5061;DHT22;2549;52.128;21.068;2022-12-18T07:35:33;-0.60;99.50
5061;DHT22;2549;52.128;21.068;2022-12-18T07:38:00;-0.60;99.40
5061;DHT22;2549;52.128;21.068;2022-12-18T07:40:27;-0.60;99.40
5061;DHT22;2549;52.128;21.068;2022-12-18T07:42:54;-0.60;99.30
5061;DHT22;2549;52.128;21.068;2022-12-18T07:45:21;-0.60;99.50
5061;DHT22;2549;52.128;21.068;2022-12-18T07:47:47;-0.50;99.40
5061;DHT22;2549;52.128;21.068;2022-12-18T07:50:14;-0.50;99.30
5061;DHT22;2549;52.128;21.068;2022-12-18T07:52:41;-0.40;99.20
5061;DHT22;2549;52.128;21.068;2022-12-18T07:55:08;-0.40;99.00
5061;DHT22;2549;52.128;21.068;2022-12-18T07:57:35;-0.40;98.60
5061;DHT22;2549;52.128;21.068;2022-12-18T08:00:22;-0.60;98.80
5061;DHT22;2549;52.128;21.068;2022-12-18T08:02:49;-0.60;99.20
5061;DHT22;2549;52.128;21.068;2022-12-18T08:05:16;-0.60;99.20
5061;DHT22;2549;52.128;21.068;2022-12-18T08:07:43;-0.50;99.50
5061;DHT22;2549;52.128;21.068;2022-12-18T08:10:10;-0.50;99.50
5061;DHT22;2549;52.128;21.068;2022-12-18T08:12:37;-0.50;99.50
5061;DHT22;2549;52.128;21.068;2022-12-18T08:15:04;-0.40;99.40
5061;DHT22;2549;52.128;21.068;2022-12-18T08:17:31;-0.30;99.40
5061;DHT22;2549;52.128;21.068;2022-12-18T08:19:58;-0.30;99.30
5061;DHT22;2549;52.128;21.068;2022-12-18T08:22:25;-0.20;99.00
5061;DHT22;2549;52.128;21.068;2022-12-18T08:24:52;-0.20;99.00
5061;DHT22;2549;52.128;21.068;2022-12-18T08:27:19;-0.10;98.90
5061;DHT22;2549;52.128;21.068;2022-12-18T08:29:56;-0.10;98.70
5061;DHT22;2549;52.128;21.068;2022-12-18T08:32:23;-0.10;98.30
5061;DHT22;2549;52.128;21.068;2022-12-18T08:34:50;-0.20;98.60
5061;DHT22;2549;52.128;21.068;2022-12-18T08:37:17;-0.20;98.40
5061;DHT22;2549;52.128;21.068;2022-12-18T08:39:44;-0.10;98.70
5061;DHT22;2549;52.128;21.068;2022-12-18T08:42:11;0.00;98.60
5061;DHT22;2549;52.128;21.068;2022-12-18T08:44:56;0.00;98.50
5061;DHT22;2549;52.128;21.068;2022-12-18T08:47:23;0.00;98.30
5061;DHT22;2549;52.128;21.068;2022-12-18T08:49:50;0.00;98.20
5061;DHT22;2549;52.128;21.068;2022-12-18T08:52:17;-0.10;98.20
5061;DHT22;2549;52.128;21.068;2022-12-18T08:54:47;-0.10;98.20
5061;DHT22;2549;52.128;21.068;2022-12-18T08:57:14;-0.10;98.50
5061;DHT22;2549;52.128;21.068;2022-12-18T08:59:40;-0.10;98.50
5061;DHT22;2549;52.128;21.068;2022-12-18T09:02:10;-0.10;98.30
5061;DHT22;2549;52.128;21.068;2022-12-18T09:04:37;-0.20;98.40
5061;DHT22;2549;52.128;21.068;2022-12-18T09:07:06;-0.10;98.50
5061;DHT22;2549;52.128;21.068;2022-12-18T09:09:33;-0.10;98.30
5061;DHT22;2549;52.128;21.068;2022-12-18T09:12:00;-0.20;98.40
5061;DHT22;2549;52.128;21.068;2022-12-18T09:14:26;-0.20;98.40
5061;DHT22;2549;52.128;21.068;2022-12-18T09:16:53;-0.30;98.20
5061;DHT22;2549;52.128;21.068;2022-12-18T09:19:20;-0.30;98.60
5061;DHT22;2549;52.128;21.068;2022-12-18T09:21:47;-0.20;98.60
5061;DHT22;2549;52.128;21.068;2022-12-18T09:24:15;-0.10;98.50
5061;DHT22;2549;52.128;21.068;2022-12-18T09:26:43;0.00;98.50
5061;DHT22;2549;52.128;21.068;2022-12-18T09:29:14;0.10;98.50
5061;DHT22;2549;52.128;21.068;2022-12-18T09:31:42;0.20;98.20
5061;DHT22;2549;52.128;21.068;2022-12-18T09:34:09;0.10;98.00
5061;DHT22;2549;52.128;21.068;2022-12-18T09:36:36;0.10;98.10
5061;DHT22;2549;52.128;21.068;2022-12-18T09:39:03;0.20;98.00
5061;DHT22;2549;52.128;21.068;2022-12-18T09:41:44;0.20;97.70
5061;DHT22;2549;52.128;21.068;2022-12-18T09:46:55;0.00;97.90
5061;DHT22;2549;52.128;21.068;2022-12-18T09:49:27;0.00;98.10
5061;DHT22;2549;52.128;21.068;2022-12-18T09:54:33;0.10;98.10
5061;DHT22;2549;52.128;21.068;2022-12-18T09:57:02;0.10;98.00
5061;DHT22;2549;52.128;21.068;2022-12-18T09:59:36;0.10;97.90
5061;DHT22;2549;52.128;21.068;2022-12-18T10:02:24;0.20;98.10
5061;DHT22;2549;52.128;21.068;2022-12-18T10:05:14;0.30;98.10
5061;DHT22;2549;52.128;21.068;2022-12-18T10:10:22;0.40;97.80
5061;DHT22;2549;52.128;21.068;2022-12-18T10:15:39;0.50;97.50
5061;DHT22;2549;52.128;21.068;2022-12-18T10:21:12;0.50;97.40
5061;DHT22;2549;52.128;21.068;2022-12-18T10:23:57;0.40;97.50
5061;DHT22;2549;52.128;21.068;2022-12-18T10:26:26;0.50;97.60
5061;DHT22;2549;52.128;21.068;2022-12-18T10:28:53;0.50;97.50
5061;DHT22;2549;52.128;21.068;2022-12-18T10:31:24;0.60;97.50
5061;DHT22;2549;52.128;21.068;2022-12-18T10:33:53;0.60;97.40
5061;DHT22;2549;52.128;21.068;2022-12-18T10:36:23;0.60;97.50
5061;DHT22;2549;52.128;21.068;2022-12-18T10:38:51;0.70;97.50
5061;DHT22;2549;52.128;21.068;2022-12-18T10:44:15;0.80;97.50
5061;DHT22;2549;52.128;21.068;2022-12-18T10:46:45;0.80;97.20
5061;DHT22;2549;52.128;21.068;2022-12-18T10:49:21;0.80;97.10
5061;DHT22;2549;52.128;21.068;2022-12-18T10:51:49;0.70;96.80
5061;DHT22;2549;52.128;21.068;2022-12-18T10:54:23;0.60;97.10
5061;DHT22;2549;52.128;21.068;2022-12-18T10:56:50;0.60;97.20
5061;DHT22;2549;52.128;21.068;2022-12-18T10:59:18;0.60;97.20
5061;DHT22;2549;52.128;21.068;2022-12-18T11:01:56;0.60;97.10
5061;DHT22;2549;52.128;21.068;2022-12-18T11:04:32;0.60;97.40
5061;DHT22;2549;52.128;21.068;2022-12-18T11:07:07;0.60;97.20
5061;DHT22;2549;52.128;21.068;2022-12-18T11:09:39;0.70;97.10
5061;DHT22;2549;52.128;21.068;2022-12-18T11:12:17;0.70;97.20
5061;DHT22;2549;52.128;21.068;2022-12-18T11:14:53;0.80;97.10
5061;DHT22;2549;52.128;21.068;2022-12-18T11:17:31;0.80;97.20
5061;DHT22;2549;52.128;21.068;2022-12-18T11:20:32;0.90;97.00
5061;DHT22;2549;52.128;21.068;2022-12-18T11:23:02;0.90;97.00
5061;DHT22;2549;52.128;21.068;2022-12-18T11:25:31;0.90;96.80
5061;DHT22;2549;52.128;21.068;2022-12-18T11:28:02;0.90;96.70
5061;DHT22;2549;52.128;21.068;2022-12-18T11:30:37;1.00;96.90
5061;DHT22;2549;52.128;21.068;2022-12-18T11:33:16;1.00;97.00
5061;DHT22;2549;52.128;21.068;2022-12-18T11:35:51;1.10;96.90
5061;DHT22;2549;52.128;21.068;2022-12-18T11:38:28;1.00;96.70
5061;DHT22;2549;52.128;21.068;2022-12-18T11:43:41;1.10;96.80
5061;DHT22;2549;52.128;21.068;2022-12-18T11:46:15;1.10;96.80
5061;DHT22;2549;52.128;21.068;2022-12-18T11:51:21;1.00;96.70
5061;DHT22;2549;52.128;21.068;2022-12-18T11:53:53;1.00;96.60
5061;DHT22;2549;52.128;21.068;2022-12-18T12:03:02;0.80;96.60
5061;DHT22;2549;52.128;21.068;2022-12-18T12:05:57;0.70;96.80
5061;DHT22;2549;52.128;21.068;2022-12-18T12:08:38;0.80;97.00
5061;DHT22;2549;52.128;21.068;2022-12-18T12:32:44;1.10;96.40
5061;DHT22;2549;52.128;21.068;2022-12-18T12:40:57;1.10;96.20
5061;DHT22;2549;52.128;21.068;2022-12-18T12:46:09;1.10;96.30
5061;DHT22;2549;52.128;21.068;2022-12-18T12:49:03;1.10;96.20
5061;DHT22;2549;52.128;21.068;2022-12-18T12:51:35;1.20;96.30
5061;DHT22;2549;52.128;21.068;2022-12-18T12:54:15;1.20;96.40
5061;DHT22;2549;52.128;21.068;2022-12-18T12:57:11;1.20;96.40
5061;DHT22;2549;52.128;21.068;2022-12-18T13:00:17;1.20;96.40
5061;DHT22;2549;52.128;21.068;2022-12-18T13:02:54;1.20;96.30
5061;DHT22;2549;52.128;21.068;2022-12-18T13:05:52;1.30;96.40
5061;DHT22;2549;52.128;21.068;2022-12-18T13:08:28;1.20;96.40
5061;DHT22;2549;52.128;21.068;2022-12-18T13:10:59;1.20;96.40
5061;DHT22;2549;52.128;21.068;2022-12-18T13:13:53;1.20;96.50
5061;DHT22;2549;52.128;21.068;2022-12-18T13:16:24;1.20;96.50
5061;DHT22;2549;52.128;21.068;2022-12-18T13:18:56;1.20;96.50
5061;DHT22;2549;52.128;21.068;2022-12-18T13:21:29;1.20;96.40
5061;DHT22;2549;52.128;21.068;2022-12-18T13:24:24;1.20;96.50
5061;DHT22;2549;52.128;21.068;2022-12-18T13:26:52;1.20;96.50
5061;DHT22;2549;52.128;21.068;2022-12-18T13:29:43;1.20;96.50
5061;DHT22;2549;52.128;21.068;2022-12-18T13:32:27;1.20;96.70
5061;DHT22;2549;52.128;21.068;2022-12-18T13:35:39;1.20;96.60
5061;DHT22;2549;52.128;21.068;2022-12-18T13:41:04;1.20;96.50
5061;DHT22;2549;52.128;21.068;2022-12-18T13:43:55;1.10;96.40
5061;DHT22;2549;52.128;21.068;2022-12-18T13:46:45;1.10;96.40
5061;DHT22;2549;52.128;21.068;2022-12-18T13:51:47;1.10;96.30
5061;DHT22;2549;52.128;21.068;2022-12-18T13:54:36;1.10;96.40
5061;DHT22;2549;52.128;21.068;2022-12-18T13:57:05;1.20;96.60
5061;DHT22;2549;52.128;21.068;2022-12-18T13:59:37;1.20;96.60
5061;DHT22;2549;52.128;21.068;2022-12-18T14:02:15;1.20;96.50
5061;DHT22;2549;52.128;21.068;2022-12-18T14:04:47;1.20;96.40
5061;DHT22;2549;52.128;21.068;2022-12-18T14:07:16;1.20;96.30
5061;DHT22;2549;52.128;21.068;2022-12-18T14:09:59;1.20;96.40
5061;DHT22;2549;52.128;21.068;2022-12-18T14:12:49;1.10;96.40
5061;DHT22;2549;52.128;21.068;2022-12-18T14:15:35;1.20;96.50
5061;DHT22;2549;52.128;21.068;2022-12-18T14:20:37;1.20;96.60
5061;DHT22;2549;52.128;21.068;2022-12-18T14:25:58;1.10;96.40
5061;DHT22;2549;52.128;21.068;2022-12-18T14:28:31;1.10;96.40
5061;DHT22;2549;52.128;21.068;2022-12-18T14:30:58;1.10;96.50
5061;DHT22;2549;52.128;21.068;2022-12-18T14:33:27;1.20;96.50
5061;DHT22;2549;52.128;21.068;2022-12-18T14:36:03;1.20;96.50
5061;DHT22;2549;52.128;21.068;2022-12-18T14:38:33;1.20;96.60
5061;DHT22;2549;52.128;21.068;2022-12-18T14:43:34;1.20;96.60
5061;DHT22;2549;52.128;21.068;2022-12-18T14:46:03;1.20;96.50
5061;DHT22;2549;52.128;21.068;2022-12-18T14:48:36;1.20;96.50
5061;DHT22;2549;52.128;21.068;2022-12-18T14:51:04;1.20;96.50
5061;DHT22;2549;52.128;21.068;2022-12-18T14:53:35;1.20;96.40
5061;DHT22;2549;52.128;21.068;2022-12-18T14:56:04;1.20;96.30
5061;DHT22;2549;52.128;21.068;2022-12-18T14:58:36;1.20;96.30
5061;DHT22;2549;52.128;21.068;2022-12-18T15:01:03;1.20;96.30
5061;DHT22;2549;52.128;21.068;2022-12-18T15:03:31;1.20;96.30
5061;DHT22;2549;52.128;21.068;2022-12-18T15:06:15;1.20;96.30
5061;DHT22;2549;52.128;21.068;2022-12-18T15:08:42;1.10;96.30
5061;DHT22;2549;52.128;21.068;2022-12-18T15:11:35;1.10;96.30
5061;DHT22;2549;52.128;21.068;2022-12-18T15:14:41;1.20;96.40
5061;DHT22;2549;52.128;21.068;2022-12-18T15:17:20;1.20;96.40
5061;DHT22;2549;52.128;21.068;2022-12-18T15:19:52;1.20;96.30
5061;DHT22;2549;52.128;21.068;2022-12-18T15:22:32;1.20;96.40
5061;DHT22;2549;52.128;21.068;2022-12-18T15:25:00;1.20;96.30
5061;DHT22;2549;52.128;21.068;2022-12-18T15:27:35;1.10;96.30
5061;DHT22;2549;52.128;21.068;2022-12-18T15:32:37;1.20;96.40
5061;DHT22;2549;52.128;21.068;2022-12-18T15:37:37;1.10;96.10
5061;DHT22;2549;52.128;21.068;2022-12-18T15:40:17;1.10;96.20
5061;DHT22;2549;52.128;21.068;2022-12-18T15:42:46;1.00;96.10
5061;DHT22;2549;52.128;21.068;2022-12-18T15:45:31;1.00;96.10
5061;DHT22;2549;52.128;21.068;2022-12-18T15:47:58;1.00;96.10
5061;DHT22;2549;52.128;21.068;2022-12-18T15:50:25;1.00;96.00
5061;DHT22;2549;52.128;21.068;2022-12-18T15:52:54;0.90;96.10
5061;DHT22;2549;52.128;21.068;2022-12-18T15:55:23;1.00;96.20
5061;DHT22;2549;52.128;21.068;2022-12-18T15:58:10;1.00;96.10
5061;DHT22;2549;52.128;21.068;2022-12-18T16:00:40;1.00;96.10
5061;DHT22;2549;52.128;21.068;2022-12-18T16:03:08;1.00;96.10
5061;DHT22;2549;52.128;21.068;2022-12-18T16:05:36;1.00;96.10
5061;DHT22;2549;52.128;21.068;2022-12-18T16:08:03;1.00;96.10
5061;DHT22;2549;52.128;21.068;2022-12-18T16:10:29;1.00;96.10
5061;DHT22;2549;52.128;21.068;2022-12-18T16:12:56;1.00;96.20
5061;DHT22;2549;52.128;21.068;2022-12-18T16:15:23;1.00;96.20
5061;DHT22;2549;52.128;21.068;2022-12-18T16:17:50;1.10;96.20
5061;DHT22;2549;52.128;21.068;2022-12-18T16:20:22;1.00;96.10
5061;DHT22;2549;52.128;21.068;2022-12-18T16:22:48;1.00;96.00
5061;DHT22;2549;52.128;21.068;2022-12-18T16:25:22;1.00;96.00
5061;DHT22;2549;52.128;21.068;2022-12-18T16:27:49;1.00;96.00
5061;DHT22;2549;52.128;21.068;2022-12-18T16:30:21;1.00;96.10
5061;DHT22;2549;52.128;21.068;2022-12-18T16:32:48;1.00;95.90
5061;DHT22;2549;52.128;21.068;2022-12-18T16:35:16;0.90;96.00
5061;DHT22;2549;52.128;21.068;2022-12-18T16:37:43;0.90;96.00
5061;DHT22;2549;52.128;21.068;2022-12-18T16:40:13;0.90;96.00
5061;DHT22;2549;52.128;21.068;2022-12-18T16:42:42;0.90;95.90
5061;DHT22;2549;52.128;21.068;2022-12-18T16:45:14;0.90;95.90
5061;DHT22;2549;52.128;21.068;2022-12-18T16:47:41;0.90;95.70
5061;DHT22;2549;52.128;21.068;2022-12-18T16:50:09;0.80;95.80
5061;DHT22;2549;52.128;21.068;2022-12-18T16:52:36;0.80;96.00
5061;DHT22;2549;52.128;21.068;2022-12-18T16:55:03;0.80;96.10
5061;DHT22;2549;52.128;21.068;2022-12-18T16:57:30;0.80;96.00
5061;DHT22;2549;52.128;21.068;2022-12-18T16:59:57;0.80;95.90
5061;DHT22;2549;52.128;21.068;2022-12-18T17:02:30;0.80;95.80
5061;DHT22;2549;52.128;21.068;2022-12-18T17:04:58;0.70;95.80
5061;DHT22;2549;52.128;21.068;2022-12-18T17:07:25;0.70;95.90
5061;DHT22;2549;52.128;21.068;2022-12-18T17:09:53;0.80;96.10
5061;DHT22;2549;52.128;21.068;2022-12-18T17:12:20;0.80;96.00
5061;DHT22;2549;52.128;21.068;2022-12-18T17:14:47;0.80;96.00
5061;DHT22;2549;52.128;21.068;2022-12-18T17:17:14;0.80;96.00
5061;DHT22;2549;52.128;21.068;2022-12-18T17:19:50;0.80;96.00
5061;DHT22;2549;52.128;21.068;2022-12-18T17:22:18;0.80;96.10
5061;DHT22;2549;52.128;21.068;2022-12-18T17:24:46;0.70;95.90
5061;DHT22;2549;52.128;21.068;2022-12-18T17:27:13;0.70;96.00
5061;DHT22;2549;52.128;21.068;2022-12-18T17:29:40;0.70;96.10
5061;DHT22;2549;52.128;21.068;2022-12-18T17:32:13;0.70;96.20
5061;DHT22;2549;52.128;21.068;2022-12-18T17:34:40;0.70;96.20
5061;DHT22;2549;52.128;21.068;2022-12-18T17:37:07;0.80;96.30
5061;DHT22;2549;52.128;21.068;2022-12-18T17:39:34;0.80;96.00
5061;DHT22;2549;52.128;21.068;2022-12-18T17:42:01;0.70;95.80
5061;DHT22;2549;52.128;21.068;2022-12-18T17:44:28;0.70;95.80
5061;DHT22;2549;52.128;21.068;2022-12-18T17:46:55;0.70;95.80
5061;DHT22;2549;52.128;21.068;2022-12-18T17:49:22;0.70;95.90
5061;DHT22;2549;52.128;21.068;2022-12-18T17:51:49;0.60;95.90
5061;DHT22;2549;52.128;21.068;2022-12-18T17:54:17;0.70;96.00
5061;DHT22;2549;52.128;21.068;2022-12-18T17:56:44;0.70;95.90